createdAt,value
2018-04-13T00:01:12.484Z,13.26
2018-04-13T00:03:40.241Z,13.25
2018-04-13T00:06:07.936Z,13.20
2018-04-13T00:08:34.804Z,13.15
2018-04-13T00:11:01.853Z,13.10
2018-04-13T00:13:28.733Z,13.06
2018-04-13T00:15:55.622Z,12.88
2018-04-13T00:18:22.537Z,12.67
2018-04-13T00:20:49.452Z,12.54
2018-04-13T00:23:16.336Z,12.40
2018-04-13T00:25:43.998Z,12.30
2018-04-13T00:28:11.616Z,12.28
2018-04-13T00:30:38.524Z,12.28
2018-04-13T00:33:05.512Z,12.30
2018-04-13T00:35:32.454Z,12.31
2018-04-13T00:37:59.338Z,12.29
2018-04-13T00:40:26.493Z,12.23
2018-04-13T00:42:54.190Z,12.27
2018-04-13T00:45:21.091Z,12.23
2018-04-13T00:47:48.258Z,12.20
2018-04-13T00:50:15.872Z,12.11
2018-04-13T00:52:51.427Z,12.05
2018-04-13T00:55:18.343Z,12.02
2018-04-13T00:57:45.220Z,11.99
2018-04-13T01:00:12.346Z,11.99
2018-04-13T01:02:39.495Z,12.01
2018-04-13T01:05:06.376Z,12.00
2018-04-13T01:07:33.409Z,12.00
2018-04-13T01:10:00.310Z,12.03
2018-04-13T01:12:27.924Z,12.03
2018-04-13T01:14:54.949Z,12.07
2018-04-13T01:17:21.874Z,12.09
2018-04-13T01:19:48.804Z,12.11
2018-04-13T01:22:16.567Z,12.19
2018-04-13T01:24:44.186Z,12.21
2018-04-13T01:27:11.107Z,12.17
2018-04-13T01:29:38.129Z,12.10
2018-04-13T01:32:05.746Z,12.01
2018-04-13T01:34:32.621Z,11.92
2018-04-13T01:36:59.694Z,11.88
2018-04-13T01:39:27.359Z,11.84
2018-04-13T01:41:54.285Z,11.79
2018-04-13T01:44:21.439Z,11.75
2018-04-13T01:46:49.045Z,11.74
2018-04-13T01:49:15.926Z,11.70
2018-04-13T01:51:42.942Z,11.76
2018-04-13T01:54:10.571Z,11.74
2018-04-13T01:56:37.462Z,11.74
2018-04-13T01:59:04.569Z,11.76
2018-04-13T02:01:32.202Z,11.74
2018-04-13T02:03:59.099Z,11.80
2018-04-13T02:06:26.184Z,11.81
2018-04-13T02:08:53.088Z,11.80
2018-04-13T02:11:19.972Z,11.79
2018-04-13T02:13:47.007Z,11.78
2018-04-13T02:16:13.880Z,11.76
2018-04-13T02:18:40.747Z,11.67
2018-04-13T02:21:08.395Z,11.61
2018-04-13T02:23:36.028Z,11.58
2018-04-13T02:26:02.920Z,11.56
2018-04-13T02:28:29.843Z,11.58
2018-04-13T02:30:57.484Z,11.55
2018-04-13T02:33:24.364Z,11.52
2018-04-13T02:35:52.232Z,11.47
2018-04-13T02:38:19.192Z,11.45
2018-04-13T02:40:46.083Z,11.39
2018-04-13T02:43:13.878Z,11.39
2018-04-13T02:45:40.784Z,11.32
2018-04-13T02:48:07.665Z,11.34
2018-04-13T02:50:34.619Z,11.32
2018-04-13T02:53:01.475Z,11.33
2018-04-13T02:55:29.092Z,11.35
2018-04-13T02:57:56.083Z,11.33
2018-04-13T03:00:23.712Z,11.31
2018-04-13T03:02:50.583Z,11.29
2018-04-13T03:05:17.687Z,11.26
2018-04-13T03:07:44.563Z,11.29
2018-04-13T03:10:11.450Z,11.30
2018-04-13T03:12:38.355Z,11.28
2018-04-13T03:15:05.280Z,11.25
2018-04-13T03:17:32.191Z,11.22
2018-04-13T03:19:59.158Z,11.19
2018-04-13T03:22:26.030Z,11.17
2018-04-13T03:24:52.946Z,11.16
2018-04-13T03:27:20.052Z,11.12
2018-04-13T03:29:47.669Z,11.12
2018-04-13T03:32:14.606Z,11.11
2018-04-13T03:34:41.633Z,11.07
2018-04-13T03:37:08.806Z,11.06
2018-04-13T03:39:35.664Z,10.95
2018-04-13T03:42:02.624Z,10.97
2018-04-13T03:44:29.536Z,10.97
2018-04-13T03:46:56.473Z,10.96
2018-04-13T03:49:23.485Z,11.01
2018-04-13T03:51:50.352Z,11.02
2018-04-13T03:54:17.976Z,10.97
2018-04-13T03:56:44.889Z,10.96
2018-04-13T03:59:11.761Z,10.93
2018-04-13T04:01:38.684Z,10.90
2018-04-13T04:04:05.784Z,10.85
2018-04-13T04:06:33.408Z,10.83
2018-04-13T04:09:00.334Z,10.81
2018-04-13T04:11:27.347Z,10.76
2018-04-13T04:13:54.964Z,10.70
2018-04-13T04:16:21.865Z,10.64
2018-04-13T04:18:49.681Z,10.59
2018-04-13T04:21:35.070Z,10.53
2018-04-13T04:24:20.378Z,10.53
2018-04-13T04:26:48.149Z,10.55
2018-04-13T04:29:15.779Z,10.56
2018-04-13T04:31:42.873Z,10.57
2018-04-13T04:34:09.859Z,10.54
2018-04-13T04:36:36.801Z,10.47
2018-04-13T04:39:05.790Z,10.42
2018-04-13T04:41:32.700Z,10.34
2018-04-13T04:43:59.597Z,10.36
2018-04-13T04:46:26.725Z,10.35
2018-04-13T04:48:54.619Z,10.40
2018-04-13T04:51:22.281Z,10.45
2018-04-13T04:53:49.184Z,10.45
2018-04-13T04:56:16.114Z,10.49
2018-04-13T04:58:43.724Z,10.51
2018-04-13T05:01:10.654Z,10.47
2018-04-13T05:03:37.599Z,10.45
2018-04-13T05:06:04.481Z,10.45
2018-04-13T05:08:31.498Z,10.50
2018-04-13T05:10:58.372Z,10.38
2018-04-13T05:13:26.033Z,10.31
2018-04-13T05:15:53.108Z,10.28
2018-04-13T05:18:20.785Z,10.26
2018-04-13T05:20:47.777Z,10.26
2018-04-13T05:23:14.801Z,10.27
2018-04-13T05:25:41.791Z,10.28
2018-04-13T05:28:08.718Z,10.30
2018-04-13T05:30:35.746Z,10.33
2018-04-13T05:33:02.619Z,10.34
2018-04-13T05:35:30.283Z,10.37
2018-04-13T05:37:57.304Z,10.38
2018-04-13T05:40:24.314Z,10.40
2018-04-13T05:42:51.244Z,10.45
2018-04-13T05:45:18.279Z,10.51
2018-04-13T05:47:45.155Z,10.54
2018-04-13T05:50:12.805Z,10.56
2018-04-13T05:52:39.737Z,10.61
2018-04-13T05:55:06.705Z,10.63
2018-04-13T05:57:34.329Z,10.62
2018-04-13T06:00:01.359Z,10.63
2018-04-13T06:02:28.288Z,10.64
2018-04-13T06:04:55.925Z,10.63
2018-04-13T06:07:22.949Z,10.67
2018-04-13T06:09:49.900Z,10.66
2018-04-13T06:12:16.805Z,10.70
2018-04-13T06:14:43.850Z,10.75
2018-04-13T06:17:10.736Z,10.75
2018-04-13T06:19:37.701Z,10.79
2018-04-13T06:22:04.964Z,10.82
2018-04-13T06:24:31.848Z,10.83
2018-04-13T06:26:58.724Z,10.77
2018-04-13T06:29:25.778Z,10.76
2018-04-13T06:31:52.672Z,10.76
2018-04-13T06:34:19.620Z,10.78
2018-04-13T06:36:46.633Z,10.76
2018-04-13T06:39:14.039Z,10.78
2018-04-13T06:41:41.035Z,10.82
2018-04-13T06:44:08.066Z,10.82
2018-04-13T06:46:35.022Z,10.86
2018-04-13T06:49:01.923Z,10.88
2018-04-13T06:51:29.005Z,10.87
2018-04-13T06:53:55.944Z,10.84
2018-04-13T06:56:22.800Z,10.83
2018-04-13T06:58:49.889Z,10.82
2018-04-13T07:01:17.569Z,10.86
2018-04-13T07:03:44.433Z,10.85
2018-04-13T07:06:11.452Z,10.85
2018-04-13T07:08:39.114Z,10.91
2018-04-13T07:11:06.724Z,10.92
2018-04-13T07:13:33.758Z,10.98
2018-04-13T07:16:00.625Z,10.90
2018-04-13T07:18:27.506Z,10.94
2018-04-13T07:20:54.656Z,10.98
2018-04-13T07:23:22.271Z,11.02
2018-04-13T07:25:49.192Z,11.08
2018-04-13T07:28:16.215Z,11.10
2018-04-13T07:30:43.823Z,11.03
2018-04-13T07:33:10.685Z,11.10
2018-04-13T07:35:37.700Z,11.17
2018-04-13T07:38:04.596Z,11.17
2018-04-13T07:40:31.463Z,11.22
2018-04-13T07:42:59.373Z,11.23
2018-04-13T07:45:26.257Z,11.26
2018-04-13T07:47:53.146Z,11.29
2018-04-13T07:50:20.329Z,11.30
2018-04-13T07:52:47.188Z,11.33
2018-04-13T07:55:14.083Z,11.33
2018-04-13T07:57:41.151Z,11.32
2018-04-13T08:00:08.113Z,11.32
2018-04-13T08:02:35.740Z,11.35
2018-04-13T08:05:02.964Z,11.37
2018-04-13T08:07:29.892Z,11.40
2018-04-13T08:09:56.830Z,11.49
2018-04-13T08:12:23.856Z,11.55
2018-04-13T08:14:50.772Z,11.61
2018-04-13T08:17:17.691Z,11.50
2018-04-13T08:19:44.768Z,11.57
2018-04-13T08:22:11.705Z,11.62
2018-04-13T08:24:39.325Z,11.60
2018-04-13T08:27:06.401Z,11.67
2018-04-13T08:29:34.098Z,11.69
2018-04-13T08:32:00.997Z,11.76
2018-04-13T08:34:28.048Z,11.73
2018-04-13T08:36:54.976Z,11.79
2018-04-13T08:39:21.868Z,11.84
2018-04-13T08:41:49.531Z,11.93
2018-04-13T08:44:17.152Z,11.86
2018-04-13T08:46:44.083Z,11.93
2018-04-13T08:49:11.202Z,11.95
2018-04-13T08:51:38.044Z,11.90
2018-04-13T08:54:05.725Z,11.87
2018-04-13T08:56:32.696Z,11.86
2018-04-13T08:58:59.555Z,11.82
2018-04-13T09:01:26.421Z,11.85
2018-04-13T09:03:53.538Z,11.91
2018-04-13T09:06:20.430Z,11.94
2018-04-13T09:08:48.054Z,11.91
2018-04-13T09:11:15.072Z,11.95
2018-04-13T09:13:41.951Z,11.94
2018-04-13T09:16:08.942Z,11.91
2018-04-13T09:18:36.734Z,11.90
2018-04-13T09:21:04.424Z,11.88
2018-04-13T09:23:31.292Z,11.85
2018-04-13T09:25:58.229Z,11.91
2018-04-13T09:28:25.221Z,11.91
2018-04-13T09:30:52.880Z,11.94
2018-04-13T09:33:20.582Z,11.97
2018-04-13T09:35:47.447Z,11.98
2018-04-13T09:38:14.422Z,12.04
2018-04-13T09:40:41.329Z,11.93
2018-04-13T09:43:08.197Z,12.05
2018-04-13T09:45:35.071Z,12.08
2018-04-13T09:48:02.215Z,12.07
2018-04-13T09:50:29.142Z,12.15
2018-04-13T09:52:56.076Z,12.06
2018-04-13T09:55:23.170Z,12.06
2018-04-13T09:57:50.110Z,12.07
2018-04-13T10:03:03.406Z,12.07
2018-04-13T10:05:30.557Z,12.11
2018-04-13T10:07:57.452Z,12.09
2018-04-13T10:10:25.969Z,12.19
2018-04-13T10:12:53.033Z,12.27
2018-04-13T10:15:19.913Z,12.39
2018-04-13T10:17:46.857Z,12.56
2018-04-13T10:20:13.769Z,12.75
2018-04-13T10:22:40.657Z,12.84
2018-04-13T10:25:08.309Z,12.99
2018-04-13T10:27:35.981Z,13.11
2018-04-13T10:30:02.984Z,13.25
2018-04-13T10:32:30.018Z,13.41
2018-04-13T10:34:56.895Z,13.37
2018-04-13T10:37:23.869Z,13.46
2018-04-13T10:39:51.554Z,13.57
2018-04-13T10:42:18.821Z,13.63
2018-04-13T10:44:45.740Z,13.68
2018-04-13T10:47:13.344Z,13.66
2018-04-13T10:49:40.436Z,13.67
2018-04-13T10:52:07.302Z,13.82
2018-04-13T10:54:34.189Z,13.79
2018-04-13T10:57:01.136Z,13.70
2018-04-13T10:59:31.011Z,13.84
2018-04-13T11:01:57.881Z,13.93
2018-04-13T11:04:24.789Z,13.81
2018-04-13T11:06:52.425Z,13.81
2018-04-13T11:09:19.605Z,13.96
2018-04-13T11:11:47.228Z,13.82
2018-04-13T11:14:14.161Z,13.97
2018-04-13T11:16:41.125Z,14.00
2018-04-13T11:19:08.005Z,13.97
2018-04-13T11:21:34.997Z,13.97
2018-04-13T11:24:02.098Z,14.11
2018-04-13T11:26:29.775Z,14.13
2018-04-13T11:28:56.682Z,13.99
2018-04-13T11:31:23.594Z,14.21
2018-04-13T11:33:50.459Z,14.23
2018-04-13T11:36:17.357Z,14.26
2018-04-13T11:38:45.023Z,14.34
2018-04-13T11:41:11.958Z,14.29
2018-04-13T11:43:39.645Z,14.44
2018-04-13T11:46:06.573Z,14.22
2018-04-13T11:48:34.193Z,14.23
2018-04-13T11:51:01.084Z,14.46
2018-04-13T11:53:28.778Z,14.76
2018-04-13T11:55:55.697Z,14.94
2018-04-13T11:58:23.292Z,15.24
2018-04-13T12:00:50.213Z,15.45
2018-04-13T12:03:17.130Z,15.60
2018-04-13T12:05:44.816Z,15.87
2018-04-13T12:08:11.769Z,15.79
2018-04-13T12:10:38.746Z,15.57
2018-04-13T12:13:05.615Z,15.33
2018-04-13T12:15:32.540Z,15.44
2018-04-13T12:17:59.433Z,15.52
2018-04-13T12:20:26.389Z,15.44
2018-04-13T12:22:54.045Z,15.30
2018-04-13T12:25:21.757Z,15.52
2018-04-13T12:27:48.664Z,15.44
2018-04-13T12:30:16.370Z,15.28
2018-04-13T12:32:43.239Z,15.39
2018-04-13T12:35:10.103Z,15.52
2018-04-13T12:37:37.766Z,15.47
2018-04-13T12:40:04.681Z,15.43
2018-04-13T12:42:31.549Z,15.45
2018-04-13T12:44:58.451Z,15.60
2018-04-13T12:47:25.356Z,15.64
2018-04-13T12:49:52.272Z,15.71
2018-04-13T12:52:19.208Z,15.76
2018-04-13T12:54:46.329Z,15.84
2018-04-13T12:57:13.769Z,15.79
2018-04-13T12:59:40.651Z,15.87
2018-04-13T13:02:07.564Z,15.98
2018-04-13T13:04:34.424Z,16.05
2018-04-13T13:07:01.394Z,16.03
2018-04-13T13:09:28.330Z,16.03
2018-04-13T13:11:55.205Z,16.02
2018-04-13T13:14:22.117Z,16.06
2018-04-13T13:16:49.045Z,16.03
2018-04-13T13:19:15.952Z,16.08
2018-04-13T13:21:42.961Z,16.01
2018-04-13T13:24:09.861Z,16.03
2018-04-13T13:26:37.494Z,16.05
2018-04-13T13:29:04.421Z,15.97
2018-04-13T13:31:31.291Z,15.81
2018-04-13T13:33:58.593Z,15.86
2018-04-13T13:36:25.524Z,15.87
2018-04-13T13:38:53.137Z,15.80
2018-04-13T13:41:20.148Z,15.76
2018-04-13T13:43:47.017Z,15.84
2018-04-13T13:46:13.979Z,15.83
2018-04-13T13:48:40.896Z,15.90
2018-04-13T13:51:07.772Z,15.98
2018-04-13T13:53:34.702Z,15.92
2018-04-13T13:56:01.786Z,15.80
2018-04-13T13:58:28.656Z,15.78
2018-04-13T14:00:55.682Z,15.88
2018-04-13T14:03:22.656Z,15.99
2018-04-13T14:05:49.564Z,16.14
2018-04-13T14:08:16.534Z,16.20
2018-04-13T14:10:43.411Z,16.16
2018-04-13T14:13:10.579Z,16.20
2018-04-13T14:15:37.441Z,16.00
2018-04-13T14:18:04.319Z,15.90
2018-04-13T14:20:32.228Z,15.96
2018-04-13T14:22:59.087Z,15.87
2018-04-13T14:25:26.169Z,15.80
2018-04-13T14:27:53.083Z,15.70
2018-04-13T14:30:20.116Z,15.63
2018-04-13T14:32:47.734Z,15.57
2018-04-13T14:35:14.604Z,15.49
2018-04-13T14:37:41.515Z,15.44
2018-04-13T14:40:08.518Z,15.38
2018-04-13T14:42:35.433Z,15.33
2018-04-13T14:45:03.133Z,15.30
2018-04-13T14:47:30.230Z,15.25
2018-04-13T14:49:57.152Z,15.25
2018-04-13T14:52:24.748Z,15.22
2018-04-13T14:54:52.396Z,15.21
2018-04-13T14:57:19.270Z,15.18
2018-04-13T14:59:46.923Z,15.16
2018-04-13T15:02:14.518Z,15.05
2018-04-13T15:04:41.756Z,15.05
2018-04-13T15:07:08.614Z,15.01
2018-04-13T15:09:35.496Z,14.92
2018-04-13T15:12:02.476Z,14.85
2018-04-13T15:14:30.137Z,14.81
2018-04-13T15:16:57.948Z,14.79
2018-04-13T15:19:24.825Z,14.80
2018-04-13T15:21:51.785Z,14.81
2018-04-13T15:24:19.493Z,14.80
2018-04-13T15:26:46.371Z,14.80
2018-04-13T15:29:13.348Z,14.76
2018-04-13T15:31:41.244Z,14.73
2018-04-13T15:34:08.145Z,14.71
2018-04-13T15:36:35.061Z,14.64
2018-04-13T15:39:02.022Z,14.52
2018-04-13T15:41:29.295Z,14.36
2018-04-13T15:43:56.160Z,14.25
2018-04-13T15:46:23.768Z,14.13
2018-04-13T15:48:50.729Z,14.02
2018-04-13T15:51:17.597Z,13.93
2018-04-13T15:53:44.506Z,13.84
2018-04-13T15:56:11.739Z,13.79
2018-04-13T15:58:38.660Z,13.80
2018-04-13T16:01:06.283Z,13.80
2018-04-13T16:03:33.200Z,13.79
2018-04-13T16:06:00.084Z,13.73
2018-04-13T16:08:26.952Z,13.72
2018-04-13T16:10:54.608Z,13.65
2018-04-13T16:13:21.526Z,13.55
2018-04-13T16:15:48.441Z,13.41
2018-04-13T16:18:15.321Z,13.40
2018-04-13T16:20:42.284Z,13.25
2018-04-13T16:23:09.166Z,13.26
2018-04-13T16:25:36.119Z,13.26
2018-04-13T16:28:03.040Z,13.22
2018-04-13T16:30:30.176Z,13.20
2018-04-13T16:32:57.186Z,13.18
2018-04-13T16:35:24.115Z,12.99
2018-04-13T16:37:51.102Z,12.95
2018-04-13T16:40:18.072Z,12.86
2018-04-13T16:42:45.745Z,12.91
2018-04-13T16:45:13.425Z,12.79
2018-04-13T16:47:40.361Z,12.81
2018-04-13T16:50:07.367Z,12.81
2018-04-13T16:52:34.267Z,12.75
2018-04-13T16:55:01.132Z,12.68
2018-04-13T16:57:28.432Z,12.62
2018-04-13T16:59:56.092Z,12.61
2018-04-13T17:02:22.967Z,12.58
2018-04-13T17:04:50.103Z,12.56
2018-04-13T17:07:18.282Z,12.54
2018-04-13T17:09:45.930Z,12.55
2018-04-13T17:12:12.858Z,12.55
2018-04-13T17:14:39.726Z,12.58
2018-04-13T17:17:07.340Z,12.54
2018-04-13T17:19:34.274Z,12.49
2018-04-13T17:22:01.213Z,12.48
2018-04-13T17:24:28.129Z,12.38
2018-04-13T17:26:55.943Z,12.41
2018-04-13T17:29:23.839Z,12.47
2018-04-13T17:31:50.816Z,12.45
2018-04-13T17:34:18.516Z,12.45
2018-04-13T17:36:45.981Z,12.47
2018-04-13T17:39:13.372Z,12.43
2018-04-13T17:41:40.522Z,12.45
2018-04-13T17:44:07.397Z,12.50
2018-04-13T17:46:35.113Z,12.55
2018-04-13T17:49:02.311Z,12.57
2018-04-13T17:51:29.462Z,12.60
2018-04-13T17:53:56.363Z,12.65
2018-04-13T17:56:23.277Z,12.69
2018-04-13T17:58:50.604Z,12.69
2018-04-13T18:01:18.476Z,12.71
2018-04-13T18:03:46.524Z,12.71
2018-04-13T18:06:13.426Z,12.69
2018-04-13T18:08:40.304Z,12.71
2018-04-13T18:11:07.211Z,12.73
2018-04-13T18:13:34.112Z,12.78
2018-04-13T18:16:00.981Z,12.78
2018-04-13T18:18:27.895Z,12.82
2018-04-13T18:20:54.899Z,12.88
2018-04-13T18:23:22.477Z,12.91
2018-04-13T18:25:49.501Z,12.92
2018-04-13T18:28:16.404Z,12.98
2018-04-13T18:30:43.297Z,12.97
2018-04-13T18:33:10.563Z,13.03
2018-04-13T18:35:37.620Z,13.07
2018-04-13T18:38:04.514Z,13.09
2018-04-13T18:40:32.212Z,13.11
2018-04-13T18:42:59.232Z,13.12
2018-04-13T18:45:26.152Z,13.14
2018-04-13T18:47:53.011Z,13.13
2018-04-13T18:50:20.757Z,13.17
2018-04-13T18:52:48.062Z,13.19
2018-04-13T18:55:15.009Z,13.22
2018-04-13T18:57:41.987Z,13.23
2018-04-13T19:00:08.870Z,13.25
2018-04-13T19:02:36.505Z,13.26
2018-04-13T19:05:03.500Z,13.24
2018-04-13T19:07:31.154Z,13.24
2018-04-13T19:09:58.108Z,13.25
2018-04-13T19:12:25.812Z,13.24
2018-04-13T19:14:52.720Z,13.20
2018-04-13T19:17:20.324Z,13.05
2018-04-13T19:19:47.433Z,13.04
2018-04-13T19:22:14.343Z,13.00
2018-04-13T19:24:41.253Z,12.95
2018-04-13T19:27:08.119Z,12.92
2018-04-13T19:29:34.979Z,12.87
2018-04-13T19:32:01.939Z,12.83
2018-04-13T19:34:28.901Z,12.70
2018-04-13T19:36:56.508Z,12.69
2018-04-13T19:39:23.400Z,12.67
2018-04-13T19:41:51.241Z,12.53
2018-04-13T19:44:18.198Z,12.54
2018-04-13T19:46:45.100Z,12.53
2018-04-13T19:49:12.034Z,12.47
2018-04-13T19:51:38.913Z,12.43
2018-04-13T19:54:05.961Z,12.40
2018-04-13T19:56:32.900Z,12.38
2018-04-13T19:58:59.763Z,12.40
2018-04-13T20:01:26.699Z,12.41
2018-04-13T20:03:53.575Z,12.37
2018-04-13T20:06:21.254Z,12.40
2018-04-13T20:08:48.175Z,12.42
2018-04-13T20:11:15.044Z,12.43
2018-04-13T20:13:42.714Z,12.43
2018-04-13T20:16:09.767Z,12.34
2018-04-13T20:18:36.741Z,12.38
2018-04-13T20:21:03.768Z,12.35
2018-04-13T20:23:30.872Z,12.32
2018-04-13T20:25:57.821Z,12.34
2018-04-13T20:28:24.747Z,12.35
2018-04-13T20:30:51.678Z,12.29
2018-04-13T20:33:18.552Z,12.33
2018-04-13T20:35:45.477Z,12.32
2018-04-13T20:38:12.370Z,12.36
2018-04-13T20:40:40.073Z,12.36
2018-04-13T20:43:07.029Z,12.39
2018-04-13T20:45:33.914Z,12.41
2018-04-13T20:48:00.788Z,12.40
2018-04-13T20:50:28.009Z,12.38
2018-04-13T20:52:54.889Z,12.34
2018-04-13T20:55:21.768Z,12.31
2018-04-13T20:57:48.744Z,12.31
2018-04-13T21:00:15.690Z,12.21
2018-04-13T21:02:42.877Z,12.17
2018-04-13T21:05:09.778Z,12.13
2018-04-13T21:07:36.722Z,12.09
2018-04-13T21:10:03.692Z,11.97
2018-04-13T21:12:31.311Z,11.92
2018-04-13T21:15:01.210Z,11.72
2018-04-13T21:17:28.121Z,11.68
2018-04-13T21:19:55.752Z,11.68
2018-04-13T21:22:22.995Z,11.52
2018-04-13T21:24:49.981Z,11.59
2018-04-13T21:27:16.877Z,11.52
2018-04-13T21:29:43.864Z,11.52
2018-04-13T21:32:10.812Z,11.44
2018-04-13T21:34:37.952Z,11.42
2018-04-13T21:37:04.903Z,11.40
2018-04-13T21:39:31.810Z,11.37
2018-04-13T21:41:58.769Z,11.35
2018-04-13T21:44:26.564Z,11.33
2018-04-13T21:46:53.647Z,11.37
2018-04-13T21:49:20.550Z,11.34
2018-04-13T21:51:47.484Z,11.33
2018-04-13T21:54:14.448Z,11.20
2018-04-13T21:56:41.333Z,11.14
2018-04-13T21:59:08.257Z,11.20
2018-04-13T22:01:35.924Z,11.22
2018-04-13T22:04:03.581Z,11.16
2018-04-13T22:06:31.288Z,11.17
2018-04-13T22:08:58.164Z,11.13
2018-04-13T22:11:25.076Z,11.15
2018-04-13T22:17:02.890Z,10.99
2018-04-13T22:19:29.768Z,10.88
2018-04-13T22:21:56.697Z,10.80
2018-04-13T22:24:23.672Z,10.76
2018-04-13T22:26:50.681Z,10.74
2018-04-13T22:29:17.646Z,10.72
2018-04-13T22:31:44.639Z,10.72
2018-04-13T22:34:12.324Z,10.74
2018-04-13T22:36:39.250Z,10.72
2018-04-13T22:39:07.134Z,10.68
2018-04-13T22:41:34.101Z,10.58
2018-04-13T22:44:01.061Z,10.58
2018-04-13T22:46:28.048Z,10.55
2018-04-13T22:48:55.750Z,10.56
2018-04-13T22:51:22.661Z,10.57
2018-04-13T22:53:49.806Z,10.58
2018-04-13T22:56:16.708Z,10.56
2018-04-13T22:58:43.609Z,10.55
2018-04-13T23:01:11.283Z,10.47
2018-04-13T23:03:38.919Z,10.47
2018-04-13T23:06:05.861Z,10.50
2018-04-13T23:08:32.760Z,10.48
2018-04-13T23:10:59.688Z,10.46
2018-04-13T23:13:26.987Z,10.40
2018-04-13T23:15:53.920Z,10.42
2018-04-13T23:18:20.850Z,10.38
2018-04-13T23:20:47.796Z,10.33
2018-04-13T23:23:14.889Z,10.30
2018-04-13T23:25:41.786Z,10.29
2018-04-13T23:28:08.711Z,10.24
2018-04-13T23:30:35.683Z,10.18
2018-04-13T23:33:02.648Z,10.12
2018-04-13T23:35:29.580Z,10.13
2018-04-13T23:37:56.482Z,10.17
2018-04-13T23:40:23.673Z,10.15
2018-04-13T23:42:50.565Z,10.15
2018-04-13T23:45:17.518Z,10.10
2018-04-13T23:47:44.485Z,10.12
2018-04-13T23:50:12.138Z,10.15
2018-04-13T23:52:39.153Z,10.11
2018-04-13T23:55:06.068Z,10.16
2018-04-13T23:57:33.011Z,10.12
